sensor_id;sensor_type;location;lat;lon;timestamp;temperature;humidity
674;DHT22;319;48.764;9.174;2023-11-21T00:03:14;10.20;99.90
674;DHT22;319;48.764;9.174;2023-11-21T00:05:41;10.30;99.90
674;DHT22;319;48.764;9.174;2023-11-21T00:08:08;10.30;99.90
674;DHT22;319;48.764;9.174;2023-11-21T00:10:35;10.20;99.90
674;DHT22;319;48.764;9.174;2023-11-21T00:13:03;10.30;99.90
674;DHT22;319;48.764;9.174;2023-11-21T00:15:30;10.20;99.90
674;DHT22;319;48.764;9.174;2023-11-21T00:17:57;10.20;99.90
674;DHT22;319;48.764;9.174;2023-11-21T00:20:25;10.20;99.90
674;DHT22;319;48.764;9.174;2023-11-21T00:22:52;10.20;99.90
674;DHT22;319;48.764;9.174;2023-11-21T00:25:19;10.20;99.90
674;DHT22;319;48.764;9.174;2023-11-21T00:27:45;10.20;99.90
674;DHT22;319;48.764;9.174;2023-11-21T00:30:13;10.10;99.90
674;DHT22;319;48.764;9.174;2023-11-21T00:32:40;10.10;99.90
674;DHT22;319;48.764;9.174;2023-11-21T00:35:07;10.20;99.90
674;DHT22;319;48.764;9.174;2023-11-21T00:37:35;10.10;99.90
674;DHT22;319;48.764;9.174;2023-11-21T00:40:05;10.00;99.90
674;DHT22;319;48.764;9.174;2023-11-21T00:42:32;10.10;99.90
674;DHT22;319;48.764;9.174;2023-11-21T00:45:00;10.10;99.90
674;DHT22;319;48.764;9.174;2023-11-21T00:47:26;10.10;99.90
674;DHT22;319;48.764;9.174;2023-11-21T00:49:53;10.20;99.90
674;DHT22;319;48.764;9.174;2023-11-21T00:52:20;10.20;99.90
674;DHT22;319;48.764;9.174;2023-11-21T00:54:48;10.30;99.90
674;DHT22;319;48.764;9.174;2023-11-21T00:57:15;10.30;99.90
674;DHT22;319;48.764;9.174;2023-11-21T00:59:41;10.30;99.90
674;DHT22;319;48.764;9.174;2023-11-21T01:02:08;10.30;99.90
674;DHT22;319;48.764;9.174;2023-11-21T01:04:36;10.30;99.90
674;DHT22;319;48.764;9.174;2023-11-21T01:07:03;10.30;99.90
674;DHT22;319;48.764;9.174;2023-11-21T01:09:31;10.30;99.90
674;DHT22;319;48.764;9.174;2023-11-21T01:11:59;10.40;99.90
674;DHT22;319;48.764;9.174;2023-11-21T01:14:26;10.30;99.90
674;DHT22;319;48.764;9.174;2023-11-21T01:16:53;10.30;99.90
674;DHT22;319;48.764;9.174;2023-11-21T01:19:20;10.30;99.90
674;DHT22;319;48.764;9.174;2023-11-21T01:21:47;10.30;99.90
674;DHT22;319;48.764;9.174;2023-11-21T01:24:14;10.30;99.90
674;DHT22;319;48.764;9.174;2023-11-21T01:26:41;10.30;99.90
674;DHT22;319;48.764;9.174;2023-11-21T01:29:09;10.30;99.90
674;DHT22;319;48.764;9.174;2023-11-21T01:31:35;10.30;99.90
674;DHT22;319;48.764;9.174;2023-11-21T01:34:02;10.30;99.90
674;DHT22;319;48.764;9.174;2023-11-21T01:36:30;10.30;99.90
674;DHT22;319;48.764;9.174;2023-11-21T01:38:58;10.30;99.90
674;DHT22;319;48.764;9.174;2023-11-21T01:41:25;10.30;99.90
674;DHT22;319;48.764;9.174;2023-11-21T01:43:54;10.30;99.90
674;DHT22;319;48.764;9.174;2023-11-21T01:46:22;10.30;99.90
674;DHT22;319;48.764;9.174;2023-11-21T01:48:49;10.30;99.90
674;DHT22;319;48.764;9.174;2023-11-21T01:51:17;10.40;99.90
674;DHT22;319;48.764;9.174;2023-11-21T01:53:44;10.30;99.90
674;DHT22;319;48.764;9.174;2023-11-21T01:56:12;10.40;99.90
674;DHT22;319;48.764;9.174;2023-11-21T01:58:39;10.40;99.90
674;DHT22;319;48.764;9.174;2023-11-21T02:01:07;10.40;99.90
674;DHT22;319;48.764;9.174;2023-11-21T02:03:36;10.50;99.90
674;DHT22;319;48.764;9.174;2023-11-21T02:06:04;10.50;99.90
674;DHT22;319;48.764;9.174;2023-11-21T02:08:32;10.50;99.90
674;DHT22;319;48.764;9.174;2023-11-21T02:10:58;10.50;99.90
674;DHT22;319;48.764;9.174;2023-11-21T02:13:25;10.40;99.90
674;DHT22;319;48.764;9.174;2023-11-21T02:15:52;10.40;99.90
674;DHT22;319;48.764;9.174;2023-11-21T02:18:20;10.50;99.90
674;DHT22;319;48.764;9.174;2023-11-21T02:20:49;10.50;99.90
674;DHT22;319;48.764;9.174;2023-11-21T02:23:18;10.50;99.90
674;DHT22;319;48.764;9.174;2023-11-21T02:25:44;10.50;99.90
674;DHT22;319;48.764;9.174;2023-11-21T02:28:12;10.50;99.90
674;DHT22;319;48.764;9.174;2023-11-21T02:30:41;10.50;99.90
674;DHT22;319;48.764;9.174;2023-11-21T02:33:08;10.50;99.90
674;DHT22;319;48.764;9.174;2023-11-21T02:35:35;10.40;99.90
674;DHT22;319;48.764;9.174;2023-11-21T02:38:02;10.40;99.90
674;DHT22;319;48.764;9.174;2023-11-21T02:40:30;10.50;99.90
674;DHT22;319;48.764;9.174;2023-11-21T02:42:57;10.50;99.90
674;DHT22;319;48.764;9.174;2023-11-21T02:45:24;10.50;99.90
674;DHT22;319;48.764;9.174;2023-11-21T02:47:51;10.40;99.90
674;DHT22;319;48.764;9.174;2023-11-21T02:50:20;10.40;99.90
674;DHT22;319;48.764;9.174;2023-11-21T02:52:48;10.40;99.90
674;DHT22;319;48.764;9.174;2023-11-21T02:55:15;10.30;99.90
674;DHT22;319;48.764;9.174;2023-11-21T02:57:43;10.30;99.90
674;DHT22;319;48.764;9.174;2023-11-21T03:00:10;10.20;99.90
674;DHT22;319;48.764;9.174;2023-11-21T03:02:38;10.20;99.90
674;DHT22;319;48.764;9.174;2023-11-21T03:05:06;10.30;99.90
674;DHT22;319;48.764;9.174;2023-11-21T03:07:34;10.20;99.90
674;DHT22;319;48.764;9.174;2023-11-21T03:10:01;10.20;99.90
674;DHT22;319;48.764;9.174;2023-11-21T03:12:29;10.30;99.90
674;DHT22;319;48.764;9.174;2023-11-21T03:14:57;10.20;99.90
674;DHT22;319;48.764;9.174;2023-11-21T03:17:24;10.30;99.90
674;DHT22;319;48.764;9.174;2023-11-21T03:19:51;10.30;99.90
674;DHT22;319;48.764;9.174;2023-11-21T03:22:18;10.20;99.90
674;DHT22;319;48.764;9.174;2023-11-21T03:24:45;10.30;99.90
674;DHT22;319;48.764;9.174;2023-11-21T03:27:12;10.30;99.90
674;DHT22;319;48.764;9.174;2023-11-21T03:29:39;10.40;99.90
674;DHT22;319;48.764;9.174;2023-11-21T03:32:07;10.50;99.90
674;DHT22;319;48.764;9.174;2023-11-21T03:34:34;10.50;99.90
674;DHT22;319;48.764;9.174;2023-11-21T03:37:01;10.60;99.90
674;DHT22;319;48.764;9.174;2023-11-21T03:39:28;10.60;99.90
674;DHT22;319;48.764;9.174;2023-11-21T03:41:55;10.60;99.90
674;DHT22;319;48.764;9.174;2023-11-21T03:44:21;10.60;99.90
674;DHT22;319;48.764;9.174;2023-11-21T03:46:48;10.60;99.90
674;DHT22;319;48.764;9.174;2023-11-21T03:49:16;10.60;99.90
674;DHT22;319;48.764;9.174;2023-11-21T03:51:43;10.60;99.90
674;DHT22;319;48.764;9.174;2023-11-21T03:54:10;10.60;99.90
674;DHT22;319;48.764;9.174;2023-11-21T03:56:37;10.60;99.90
674;DHT22;319;48.764;9.174;2023-11-21T03:59:02;10.60;99.90
674;DHT22;319;48.764;9.174;2023-11-21T04:01:29;10.60;99.90
674;DHT22;319;48.764;9.174;2023-11-21T04:03:56;10.70;99.90
674;DHT22;319;48.764;9.174;2023-11-21T04:06:24;10.80;99.90
674;DHT22;319;48.764;9.174;2023-11-21T04:08:51;10.70;99.90
674;DHT22;319;48.764;9.174;2023-11-21T04:11:17;10.60;99.90
674;DHT22;319;48.764;9.174;2023-11-21T04:13:44;10.60;99.90
674;DHT22;319;48.764;9.174;2023-11-21T04:16:12;10.60;99.90
674;DHT22;319;48.764;9.174;2023-11-21T04:18:39;10.50;99.90
674;DHT22;319;48.764;9.174;2023-11-21T04:21:06;10.40;99.90
674;DHT22;319;48.764;9.174;2023-11-21T04:23:35;10.40;99.90
674;DHT22;319;48.764;9.174;2023-11-21T04:26:02;10.40;99.90
674;DHT22;319;48.764;9.174;2023-11-21T04:28:29;10.50;99.90
674;DHT22;319;48.764;9.174;2023-11-21T04:30:56;10.50;99.90
674;DHT22;319;48.764;9.174;2023-11-21T04:33:23;10.50;99.90
674;DHT22;319;48.764;9.174;2023-11-21T04:35:51;10.50;99.90
674;DHT22;319;48.764;9.174;2023-11-21T04:38:18;10.50;99.90
674;DHT22;319;48.764;9.174;2023-11-21T04:40:46;10.50;99.90
674;DHT22;319;48.764;9.174;2023-11-21T04:43:12;10.40;99.90
674;DHT22;319;48.764;9.174;2023-11-21T04:45:39;10.30;99.90
674;DHT22;319;48.764;9.174;2023-11-21T04:48:07;10.30;99.90
674;DHT22;319;48.764;9.174;2023-11-21T04:50:34;10.30;99.90
674;DHT22;319;48.764;9.174;2023-11-21T04:53:01;10.20;99.90
674;DHT22;319;48.764;9.174;2023-11-21T04:55:28;10.20;99.90
674;DHT22;319;48.764;9.174;2023-11-21T04:57:56;10.20;99.90
674;DHT22;319;48.764;9.174;2023-11-21T05:00:23;10.20;99.90
674;DHT22;319;48.764;9.174;2023-11-21T05:02:50;10.10;99.90
674;DHT22;319;48.764;9.174;2023-11-21T05:05:17;10.10;99.90
674;DHT22;319;48.764;9.174;2023-11-21T05:07:44;10.10;99.90
674;DHT22;319;48.764;9.174;2023-11-21T05:10:11;10.10;99.90
674;DHT22;319;48.764;9.174;2023-11-21T05:12:40;10.00;99.90
674;DHT22;319;48.764;9.174;2023-11-21T05:15:09;10.10;99.90
674;DHT22;319;48.764;9.174;2023-11-21T05:17:39;10.20;99.90
674;DHT22;319;48.764;9.174;2023-11-21T05:20:08;10.20;99.90
674;DHT22;319;48.764;9.174;2023-11-21T05:22:35;10.20;99.90
674;DHT22;319;48.764;9.174;2023-11-21T05:25:02;10.20;99.90
674;DHT22;319;48.764;9.174;2023-11-21T05:27:29;10.20;99.90
674;DHT22;319;48.764;9.174;2023-11-21T05:29:56;10.20;99.90
674;DHT22;319;48.764;9.174;2023-11-21T05:32:24;10.20;99.90
674;DHT22;319;48.764;9.174;2023-11-21T05:34:52;10.10;99.90
674;DHT22;319;48.764;9.174;2023-11-21T05:37:19;10.20;99.90
674;DHT22;319;48.764;9.174;2023-11-21T05:39:46;10.20;99.90
674;DHT22;319;48.764;9.174;2023-11-21T05:42:13;10.30;99.90
674;DHT22;319;48.764;9.174;2023-11-21T05:44:42;10.30;99.90
674;DHT22;319;48.764;9.174;2023-11-21T05:47:09;10.40;99.90
674;DHT22;319;48.764;9.174;2023-11-21T05:49:37;10.40;99.90
674;DHT22;319;48.764;9.174;2023-11-21T05:52:04;10.40;99.90
674;DHT22;319;48.764;9.174;2023-11-21T05:54:31;10.40;99.90
674;DHT22;319;48.764;9.174;2023-11-21T05:56:59;10.40;99.90
674;DHT22;319;48.764;9.174;2023-11-21T05:59:26;10.40;99.90
674;DHT22;319;48.764;9.174;2023-11-21T06:01:53;10.30;99.90
674;DHT22;319;48.764;9.174;2023-11-21T06:04:19;10.30;99.90
674;DHT22;319;48.764;9.174;2023-11-21T06:06:51;10.30;99.90
674;DHT22;319;48.764;9.174;2023-11-21T06:09:18;10.30;99.90
674;DHT22;319;48.764;9.174;2023-11-21T06:11:44;10.30;99.90
674;DHT22;319;48.764;9.174;2023-11-21T06:14:11;10.30;99.90
674;DHT22;319;48.764;9.174;2023-11-21T06:16:38;10.40;99.90
674;DHT22;319;48.764;9.174;2023-11-21T06:19:05;10.40;99.90
674;DHT22;319;48.764;9.174;2023-11-21T06:21:32;10.40;99.90
674;DHT22;319;48.764;9.174;2023-11-21T06:24:01;10.40;99.90
674;DHT22;319;48.764;9.174;2023-11-21T06:26:28;10.40;99.90
674;DHT22;319;48.764;9.174;2023-11-21T06:28:54;10.50;99.90
674;DHT22;319;48.764;9.174;2023-11-21T06:31:22;10.50;99.90
674;DHT22;319;48.764;9.174;2023-11-21T06:33:49;10.50;99.90
674;DHT22;319;48.764;9.174;2023-11-21T06:36:17;10.50;99.90
674;DHT22;319;48.764;9.174;2023-11-21T06:38:45;10.60;99.90
674;DHT22;319;48.764;9.174;2023-11-21T06:41:14;10.60;99.90
674;DHT22;319;48.764;9.174;2023-11-21T06:43:41;10.60;99.90
674;DHT22;319;48.764;9.174;2023-11-21T06:46:12;10.60;99.90
674;DHT22;319;48.764;9.174;2023-11-21T06:48:40;10.60;99.90
674;DHT22;319;48.764;9.174;2023-11-21T06:51:07;10.60;99.90
674;DHT22;319;48.764;9.174;2023-11-21T06:53:33;10.60;99.90
674;DHT22;319;48.764;9.174;2023-11-21T06:56:00;10.60;99.90
674;DHT22;319;48.764;9.174;2023-11-21T06:58:28;10.60;99.90
674;DHT22;319;48.764;9.174;2023-11-21T07:00:55;10.60;99.90
674;DHT22;319;48.764;9.174;2023-11-21T07:03:24;10.60;99.90
674;DHT22;319;48.764;9.174;2023-11-21T07:05:51;10.60;99.90
674;DHT22;319;48.764;9.174;2023-11-21T07:08:18;10.70;99.90
674;DHT22;319;48.764;9.174;2023-11-21T07:10:45;10.70;99.90
674;DHT22;319;48.764;9.174;2023-11-21T07:13:12;10.80;99.90
674;DHT22;319;48.764;9.174;2023-11-21T07:15:41;10.90;99.90
674;DHT22;319;48.764;9.174;2023-11-21T07:18:08;10.90;99.90
674;DHT22;319;48.764;9.174;2023-11-21T07:20:35;10.90;99.90
674;DHT22;319;48.764;9.174;2023-11-21T07:23:02;10.90;99.90
674;DHT22;319;48.764;9.174;2023-11-21T07:25:29;11.00;99.90
674;DHT22;319;48.764;9.174;2023-11-21T07:27:57;11.00;99.90
674;DHT22;319;48.764;9.174;2023-11-21T07:30:24;11.00;99.90
674;DHT22;319;48.764;9.174;2023-11-21T07:32:52;11.10;99.90
674;DHT22;319;48.764;9.174;2023-11-21T07:35:18;11.20;99.90
674;DHT22;319;48.764;9.174;2023-11-21T07:37:45;11.20;99.90
674;DHT22;319;48.764;9.174;2023-11-21T07:40:13;11.20;99.90
674;DHT22;319;48.764;9.174;2023-11-21T07:42:40;11.20;99.90
674;DHT22;319;48.764;9.174;2023-11-21T07:45:08;11.20;99.90
674;DHT22;319;48.764;9.174;2023-11-21T07:47:35;11.20;99.90
674;DHT22;319;48.764;9.174;2023-11-21T07:50:04;11.20;99.90
674;DHT22;319;48.764;9.174;2023-11-21T07:52:32;11.20;99.90
674;DHT22;319;48.764;9.174;2023-11-21T07:54:59;11.20;99.90
674;DHT22;319;48.764;9.174;2023-11-21T07:57:27;11.20;99.90
674;DHT22;319;48.764;9.174;2023-11-21T07:59:53;11.20;99.90
674;DHT22;319;48.764;9.174;2023-11-21T08:02:20;11.20;99.90
674;DHT22;319;48.764;9.174;2023-11-21T08:04:47;11.30;99.90
674;DHT22;319;48.764;9.174;2023-11-21T08:07:17;11.30;99.90
674;DHT22;319;48.764;9.174;2023-11-21T08:09:44;11.30;99.90
674;DHT22;319;48.764;9.174;2023-11-21T08:12:12;11.30;99.90
674;DHT22;319;48.764;9.174;2023-11-21T08:14:38;11.30;99.90
674;DHT22;319;48.764;9.174;2023-11-21T08:17:06;11.30;99.90
674;DHT22;319;48.764;9.174;2023-11-21T08:19:35;11.30;99.90
674;DHT22;319;48.764;9.174;2023-11-21T08:22:02;11.30;99.90
674;DHT22;319;48.764;9.174;2023-11-21T08:24:30;11.40;99.90
674;DHT22;319;48.764;9.174;2023-11-21T08:26:57;11.50;99.90
674;DHT22;319;48.764;9.174;2023-11-21T08:29:24;11.50;99.90
674;DHT22;319;48.764;9.174;2023-11-21T08:31:51;11.50;99.90
674;DHT22;319;48.764;9.174;2023-11-21T08:34:17;11.50;99.90
674;DHT22;319;48.764;9.174;2023-11-21T08:36:44;11.30;99.90
674;DHT22;319;48.764;9.174;2023-11-21T08:39:12;11.30;99.90
674;DHT22;319;48.764;9.174;2023-11-21T08:41:45;11.30;99.90
674;DHT22;319;48.764;9.174;2023-11-21T08:44:12;11.40;99.90
674;DHT22;319;48.764;9.174;2023-11-21T08:46:39;11.40;99.90
674;DHT22;319;48.764;9.174;2023-11-21T08:49:07;11.50;99.90
674;DHT22;319;48.764;9.174;2023-11-21T08:51:34;11.60;99.90
674;DHT22;319;48.764;9.174;2023-11-21T08:54:00;11.60;99.90
674;DHT22;319;48.764;9.174;2023-11-21T08:56:30;11.80;99.90
674;DHT22;319;48.764;9.174;2023-11-21T08:58:58;11.90;99.90
674;DHT22;319;48.764;9.174;2023-11-21T09:01:27;12.00;99.90
674;DHT22;319;48.764;9.174;2023-11-21T09:03:54;12.00;99.90
674;DHT22;319;48.764;9.174;2023-11-21T09:06:21;12.10;99.90
674;DHT22;319;48.764;9.174;2023-11-21T09:08:47;12.40;99.90
674;DHT22;319;48.764;9.174;2023-11-21T09:11:14;12.60;99.90
674;DHT22;319;48.764;9.174;2023-11-21T09:13:41;12.80;99.90
674;DHT22;319;48.764;9.174;2023-11-21T09:16:09;12.90;99.90
674;DHT22;319;48.764;9.174;2023-11-21T09:18:36;13.00;99.90
674;DHT22;319;48.764;9.174;2023-11-21T09:21:03;13.20;99.90
674;DHT22;319;48.764;9.174;2023-11-21T09:23:30;13.30;99.90
674;DHT22;319;48.764;9.174;2023-11-21T09:25:57;13.30;99.90
674;DHT22;319;48.764;9.174;2023-11-21T09:28:29;13.50;99.90
674;DHT22;319;48.764;9.174;2023-11-21T09:30:58;13.40;99.90
674;DHT22;319;48.764;9.174;2023-11-21T09:33:26;13.30;99.90
674;DHT22;319;48.764;9.174;2023-11-21T09:35:53;13.50;99.90
674;DHT22;319;48.764;9.174;2023-11-21T09:38:19;13.70;99.90
674;DHT22;319;48.764;9.174;2023-11-21T09:40:46;13.90;99.90
674;DHT22;319;48.764;9.174;2023-11-21T09:43:16;14.00;99.90
674;DHT22;319;48.764;9.174;2023-11-21T09:45:45;14.10;99.90
674;DHT22;319;48.764;9.174;2023-11-21T09:48:13;13.90;99.90
674;DHT22;319;48.764;9.174;2023-11-21T09:50:42;13.90;99.90
674;DHT22;319;48.764;9.174;2023-11-21T09:53:13;13.80;99.90
674;DHT22;319;48.764;9.174;2023-11-21T09:55:42;13.70;99.90
674;DHT22;319;48.764;9.174;2023-11-21T09:58:09;13.50;99.90
674;DHT22;319;48.764;9.174;2023-11-21T10:00:40;13.40;99.90
674;DHT22;319;48.764;9.174;2023-11-21T10:03:07;13.30;99.90
674;DHT22;319;48.764;9.174;2023-11-21T10:05:34;13.20;99.90
674;DHT22;319;48.764;9.174;2023-11-21T10:08:04;13.10;99.90
674;DHT22;319;48.764;9.174;2023-11-21T10:10:32;13.10;99.90
674;DHT22;319;48.764;9.174;2023-11-21T10:13:02;13.20;99.90
674;DHT22;319;48.764;9.174;2023-11-21T10:15:33;13.20;99.90
674;DHT22;319;48.764;9.174;2023-11-21T10:18:02;13.10;99.90
674;DHT22;319;48.764;9.174;2023-11-21T10:20:30;13.10;99.90
674;DHT22;319;48.764;9.174;2023-11-21T10:22:59;13.10;99.90
674;DHT22;319;48.764;9.174;2023-11-21T10:25:28;13.00;99.90
674;DHT22;319;48.764;9.174;2023-11-21T10:27:58;12.60;99.90
674;DHT22;319;48.764;9.174;2023-11-21T10:30:30;12.30;99.90
674;DHT22;319;48.764;9.174;2023-11-21T10:32:59;12.20;99.90
674;DHT22;319;48.764;9.174;2023-11-21T10:35:39;12.10;99.90
674;DHT22;319;48.764;9.174;2023-11-21T10:38:06;12.00;99.90
674;DHT22;319;48.764;9.174;2023-11-21T10:40:39;11.90;99.90
674;DHT22;319;48.764;9.174;2023-11-21T10:43:07;11.90;99.90
674;DHT22;319;48.764;9.174;2023-11-21T10:45:36;11.90;99.90
674;DHT22;319;48.764;9.174;2023-11-21T10:48:05;12.00;99.90
674;DHT22;319;48.764;9.174;2023-11-21T10:50:33;12.00;99.90
674;DHT22;319;48.764;9.174;2023-11-21T10:53:02;12.10;99.90
674;DHT22;319;48.764;9.174;2023-11-21T10:55:29;12.10;99.90
674;DHT22;319;48.764;9.174;2023-11-21T10:57:59;12.10;99.90
674;DHT22;319;48.764;9.174;2023-11-21T11:00:28;12.00;99.90
674;DHT22;319;48.764;9.174;2023-11-21T11:02:58;12.00;99.90
674;DHT22;319;48.764;9.174;2023-11-21T11:05:26;12.00;99.90
674;DHT22;319;48.764;9.174;2023-11-21T11:07:58;12.10;99.90
674;DHT22;319;48.764;9.174;2023-11-21T11:10:27;12.10;99.90
674;DHT22;319;48.764;9.174;2023-11-21T11:12:55;12.10;99.90
674;DHT22;319;48.764;9.174;2023-11-21T11:15:24;12.20;99.90
674;DHT22;319;48.764;9.174;2023-11-21T11:17:52;12.30;99.90
674;DHT22;319;48.764;9.174;2023-11-21T11:20:23;12.40;99.90
674;DHT22;319;48.764;9.174;2023-11-21T11:23:04;12.50;99.90
674;DHT22;319;48.764;9.174;2023-11-21T11:25:53;12.60;99.90
674;DHT22;319;48.764;9.174;2023-11-21T11:28:29;12.60;99.90
674;DHT22;319;48.764;9.174;2023-11-21T11:31:11;12.70;99.90
674;DHT22;319;48.764;9.174;2023-11-21T11:33:45;12.70;99.90
674;DHT22;319;48.764;9.174;2023-11-21T11:36:19;12.70;99.90
674;DHT22;319;48.764;9.174;2023-11-21T11:38:48;12.50;99.90
674;DHT22;319;48.764;9.174;2023-11-21T11:41:25;12.40;99.90
674;DHT22;319;48.764;9.174;2023-11-21T11:43:53;12.10;99.90
674;DHT22;319;48.764;9.174;2023-11-21T11:46:40;12.20;99.90
674;DHT22;319;48.764;9.174;2023-11-21T11:49:07;12.40;99.90
674;DHT22;319;48.764;9.174;2023-11-21T11:51:34;12.50;99.90
674;DHT22;319;48.764;9.174;2023-11-21T11:54:03;12.50;99.90
674;DHT22;319;48.764;9.174;2023-11-21T11:56:32;12.60;99.90
674;DHT22;319;48.764;9.174;2023-11-21T11:59:02;12.80;99.90
674;DHT22;319;48.764;9.174;2023-11-21T12:01:32;12.90;99.90
674;DHT22;319;48.764;9.174;2023-11-21T12:04:24;13.00;99.90
674;DHT22;319;48.764;9.174;2023-11-21T12:07:03;13.00;99.90
674;DHT22;319;48.764;9.174;2023-11-21T12:13:08;13.00;99.90
674;DHT22;319;48.764;9.174;2023-11-21T12:15:38;12.70;99.90
674;DHT22;319;48.764;9.174;2023-11-21T12:18:11;12.80;99.90
674;DHT22;319;48.764;9.174;2023-11-21T12:21:16;12.90;99.90
674;DHT22;319;48.764;9.174;2023-11-21T12:23:51;13.00;99.90
674;DHT22;319;48.764;9.174;2023-11-21T12:26:18;12.90;99.90
674;DHT22;319;48.764;9.174;2023-11-21T12:29:15;12.80;99.90
674;DHT22;319;48.764;9.174;2023-11-21T12:39:09;13.10;99.90
674;DHT22;319;48.764;9.174;2023-11-21T12:41:49;13.00;99.90
674;DHT22;319;48.764;9.174;2023-11-21T12:45:07;12.90;99.90
674;DHT22;319;48.764;9.174;2023-11-21T12:47:44;12.80;99.90
674;DHT22;319;48.764;9.174;2023-11-21T12:50:43;12.80;99.90
674;DHT22;319;48.764;9.174;2023-11-21T12:53:14;12.80;99.90
674;DHT22;319;48.764;9.174;2023-11-21T12:55:44;12.90;99.90
674;DHT22;319;48.764;9.174;2023-11-21T12:58:17;13.00;99.90
674;DHT22;319;48.764;9.174;2023-11-21T13:00:47;12.90;99.90
674;DHT22;319;48.764;9.174;2023-11-21T13:03:14;12.90;99.90
674;DHT22;319;48.764;9.174;2023-11-21T13:05:44;12.80;99.90
674;DHT22;319;48.764;9.174;2023-11-21T13:08:12;12.70;99.90
674;DHT22;319;48.764;9.174;2023-11-21T13:10:40;12.70;99.90
674;DHT22;319;48.764;9.174;2023-11-21T13:13:19;12.70;99.90
674;DHT22;319;48.764;9.174;2023-11-21T13:15:50;12.80;99.90
674;DHT22;319;48.764;9.174;2023-11-21T13:18:18;12.80;99.90
674;DHT22;319;48.764;9.174;2023-11-21T13:20:47;12.90;99.90
674;DHT22;319;48.764;9.174;2023-11-21T13:23:14;13.00;99.90
674;DHT22;319;48.764;9.174;2023-11-21T13:25:42;13.10;99.90
674;DHT22;319;48.764;9.174;2023-11-21T13:28:11;13.00;99.90
674;DHT22;319;48.764;9.174;2023-11-21T13:30:39;12.90;99.90
674;DHT22;319;48.764;9.174;2023-11-21T13:33:07;12.60;99.90
674;DHT22;319;48.764;9.174;2023-11-21T13:35:36;12.50;99.90
674;DHT22;319;48.764;9.174;2023-11-21T13:38:09;12.10;99.90
674;DHT22;319;48.764;9.174;2023-11-21T13:40:38;12.00;99.90
674;DHT22;319;48.764;9.174;2023-11-21T13:43:08;11.80;99.90
674;DHT22;319;48.764;9.174;2023-11-21T13:45:36;11.50;99.90
674;DHT22;319;48.764;9.174;2023-11-21T13:48:09;11.30;99.90
674;DHT22;319;48.764;9.174;2023-11-21T13:50:39;11.30;99.90
674;DHT22;319;48.764;9.174;2023-11-21T13:53:14;11.20;99.90
674;DHT22;319;48.764;9.174;2023-11-21T13:55:47;11.20;99.90
674;DHT22;319;48.764;9.174;2023-11-21T13:58:14;11.10;99.90
674;DHT22;319;48.764;9.174;2023-11-21T14:00:47;11.10;99.90
674;DHT22;319;48.764;9.174;2023-11-21T14:03:23;11.20;99.90
674;DHT22;319;48.764;9.174;2023-11-21T14:05:58;11.20;99.90
674;DHT22;319;48.764;9.174;2023-11-21T14:08:26;11.20;99.90
674;DHT22;319;48.764;9.174;2023-11-21T14:10:54;11.20;99.90
674;DHT22;319;48.764;9.174;2023-11-21T14:13:26;11.20;99.90
674;DHT22;319;48.764;9.174;2023-11-21T14:15:59;11.10;99.90
674;DHT22;319;48.764;9.174;2023-11-21T14:18:29;11.10;99.90
674;DHT22;319;48.764;9.174;2023-11-21T14:21:01;11.10;99.90
674;DHT22;319;48.764;9.174;2023-11-21T14:23:28;11.10;99.90
674;DHT22;319;48.764;9.174;2023-11-21T14:25:55;11.10;99.90
674;DHT22;319;48.764;9.174;2023-11-21T14:28:23;11.10;99.90
674;DHT22;319;48.764;9.174;2023-11-21T14:30:50;11.10;99.90
674;DHT22;319;48.764;9.174;2023-11-21T14:33:16;11.10;99.90
674;DHT22;319;48.764;9.174;2023-11-21T14:35:44;11.20;99.90
674;DHT22;319;48.764;9.174;2023-11-21T14:38:12;11.20;99.90
674;DHT22;319;48.764;9.174;2023-11-21T14:40:40;11.20;99.90
674;DHT22;319;48.764;9.174;2023-11-21T14:43:06;11.20;99.90
674;DHT22;319;48.764;9.174;2023-11-21T14:45:34;11.20;99.90
674;DHT22;319;48.764;9.174;2023-11-21T14:48:01;11.20;99.90
674;DHT22;319;48.764;9.174;2023-11-21T14:50:39;11.10;99.90
674;DHT22;319;48.764;9.174;2023-11-21T14:53:32;11.10;99.90
674;DHT22;319;48.764;9.174;2023-11-21T14:56:17;11.10;99.90
674;DHT22;319;48.764;9.174;2023-11-21T14:58:52;11.00;99.90
674;DHT22;319;48.764;9.174;2023-11-21T15:01:23;11.00;99.90
674;DHT22;319;48.764;9.174;2023-11-21T15:04:02;11.00;99.90
674;DHT22;319;48.764;9.174;2023-11-21T15:06:31;11.00;99.90
674;DHT22;319;48.764;9.174;2023-11-21T15:08:58;11.10;99.90
674;DHT22;319;48.764;9.174;2023-11-21T15:11:42;11.10;99.90
674;DHT22;319;48.764;9.174;2023-11-21T15:14:09;11.10;99.90
674;DHT22;319;48.764;9.174;2023-11-21T15:16:40;11.00;99.90
674;DHT22;319;48.764;9.174;2023-11-21T15:19:12;11.00;99.90
674;DHT22;319;48.764;9.174;2023-11-21T15:21:43;11.10;99.90
674;DHT22;319;48.764;9.174;2023-11-21T15:24:12;11.10;99.90
674;DHT22;319;48.764;9.174;2023-11-21T15:26:39;11.10;99.90
674;DHT22;319;48.764;9.174;2023-11-21T15:29:06;11.20;99.90
674;DHT22;319;48.764;9.174;2023-11-21T15:31:33;11.20;99.90
674;DHT22;319;48.764;9.174;2023-11-21T15:34:01;11.20;99.90
674;DHT22;319;48.764;9.174;2023-11-21T15:36:30;11.20;99.90
674;DHT22;319;48.764;9.174;2023-11-21T15:38:57;11.20;99.90
674;DHT22;319;48.764;9.174;2023-11-21T15:41:25;11.30;99.90
674;DHT22;319;48.764;9.174;2023-11-21T15:43:52;11.30;99.90
674;DHT22;319;48.764;9.174;2023-11-21T15:46:19;11.20;99.90
674;DHT22;319;48.764;9.174;2023-11-21T15:48:45;11.30;99.90
674;DHT22;319;48.764;9.174;2023-11-21T15:51:16;11.30;99.90
674;DHT22;319;48.764;9.174;2023-11-21T15:53:44;11.30;99.90
674;DHT22;319;48.764;9.174;2023-11-21T15:56:11;11.20;99.90
674;DHT22;319;48.764;9.174;2023-11-21T15:58:39;11.20;99.90
674;DHT22;319;48.764;9.174;2023-11-21T16:01:08;11.20;99.90
674;DHT22;319;48.764;9.174;2023-11-21T16:03:35;11.20;99.90
674;DHT22;319;48.764;9.174;2023-11-21T16:06:04;11.10;99.90
674;DHT22;319;48.764;9.174;2023-11-21T16:08:36;11.10;99.90
674;DHT22;319;48.764;9.174;2023-11-21T16:11:04;11.00;99.90
674;DHT22;319;48.764;9.174;2023-11-21T16:13:31;10.90;99.90
674;DHT22;319;48.764;9.174;2023-11-21T16:16:01;10.90;99.90
674;DHT22;319;48.764;9.174;2023-11-21T16:18:29;10.90;99.90
674;DHT22;319;48.764;9.174;2023-11-21T16:20:56;11.00;99.90
674;DHT22;319;48.764;9.174;2023-11-21T16:23:23;10.90;99.90
674;DHT22;319;48.764;9.174;2023-11-21T16:25:50;10.90;99.90
674;DHT22;319;48.764;9.174;2023-11-21T16:28:21;10.90;99.90
674;DHT22;319;48.764;9.174;2023-11-21T16:31:04;10.90;99.90
674;DHT22;319;48.764;9.174;2023-11-21T16:33:32;11.00;99.90
674;DHT22;319;48.764;9.174;2023-11-21T16:35:59;11.10;99.90
674;DHT22;319;48.764;9.174;2023-11-21T16:38:31;11.10;99.90
674;DHT22;319;48.764;9.174;2023-11-21T16:40:58;11.20;99.90
674;DHT22;319;48.764;9.174;2023-11-21T16:43:26;11.10;99.90
674;DHT22;319;48.764;9.174;2023-11-21T16:45:52;11.10;99.90
674;DHT22;319;48.764;9.174;2023-11-21T16:48:23;11.10;99.90
674;DHT22;319;48.764;9.174;2023-11-21T16:51:03;11.10;99.90
674;DHT22;319;48.764;9.174;2023-11-21T16:53:29;11.10;99.90
674;DHT22;319;48.764;9.174;2023-11-21T16:55:56;11.10;99.90
674;DHT22;319;48.764;9.174;2023-11-21T16:58:28;11.10;99.90